createdAt,value
2022-11-19T00:01:38.464Z,19.33
2022-11-19T00:04:08.809Z,20.20
2022-11-19T00:06:38.853Z,20.52
2022-11-19T00:09:11.219Z,20.95
2022-11-19T00:12:00.021Z,18.80
2022-11-19T00:14:30.128Z,18.45
2022-11-19T00:17:00.909Z,17.83
2022-11-19T00:19:30.957Z,18.13
2022-11-19T00:22:01.038Z,18.60
2022-11-19T00:24:31.145Z,19.65
2022-11-19T00:27:04.205Z,19.27
2022-11-19T00:29:34.332Z,18.98
2022-11-19T00:32:05.189Z,19.75
2022-11-19T00:34:35.233Z,19.70
2022-11-19T00:37:05.391Z,19.92
2022-11-19T00:39:35.554Z,17.80
2022-11-19T00:42:06.142Z,19.80
2022-11-19T00:44:37.552Z,19.38
2022-11-19T00:47:07.802Z,18.65
2022-11-19T00:49:37.888Z,18.95
2022-11-19T00:52:08.047Z,19.17
2022-11-19T00:54:38.429Z,18.42
2022-11-19T00:57:10.861Z,18.98
2022-11-19T00:59:40.885Z,18.20
2022-11-19T01:02:11.387Z,19.92
2022-11-19T01:04:41.380Z,18.77
2022-11-19T01:07:11.613Z,19.00
2022-11-19T01:09:41.688Z,19.08
2022-11-19T01:12:16.980Z,19.83
2022-11-19T01:14:47.063Z,20.48
2022-11-19T01:17:17.088Z,20.63
2022-11-19T01:19:45.511Z,20.80
2022-11-19T01:22:13.921Z,25.05
2022-11-19T01:24:42.478Z,23.10
2022-11-19T01:27:10.771Z,23.70
2022-11-19T01:29:39.197Z,22.70
2022-11-19T01:32:07.624Z,22.27
2022-11-19T01:34:36.103Z,24.60
2022-11-19T01:37:04.459Z,23.73
2022-11-19T01:39:32.902Z,23.38
2022-11-19T01:42:01.347Z,24.58
2022-11-19T01:45:04.420Z,22.48
2022-11-19T01:47:34.850Z,24.35
2022-11-19T01:50:06.329Z,22.13
2022-11-19T01:52:36.585Z,23.67
2022-11-19T01:55:11.076Z,25.00
2022-11-19T01:57:42.002Z,23.15
2022-11-19T02:00:13.521Z,22.02
2022-11-19T02:02:43.500Z,23.65
2022-11-19T02:05:14.240Z,23.80
2022-11-19T02:07:57.609Z,25.38
2022-11-19T02:10:59.058Z,23.05
2022-11-19T02:13:46.124Z,23.25
2022-11-19T02:17:03.568Z,23.70
2022-11-19T02:20:29.834Z,23.35
2022-11-19T02:23:46.328Z,23.10
2022-11-19T02:26:19.327Z,22.63
2022-11-19T02:29:30.218Z,23.45
2022-11-19T02:32:17.320Z,22.63
2022-11-19T02:35:12.826Z,24.13
2022-11-19T02:37:59.310Z,23.10
2022-11-19T02:40:49.714Z,22.83
2022-11-19T02:43:43.389Z,22.27
2022-11-19T02:46:18.474Z,21.83
2022-11-19T02:48:54.087Z,20.92
2022-11-19T02:51:24.536Z,21.80
2022-11-19T02:53:53.073Z,22.58
2022-11-19T02:56:53.059Z,23.05
2022-11-19T03:00:12.795Z,23.27
2022-11-19T03:03:15.943Z,24.55
2022-11-19T03:05:57.473Z,23.20
2022-11-19T03:08:29.208Z,22.52
2022-11-19T03:11:06.818Z,21.60
2022-11-19T03:14:41.918Z,22.77
2022-11-19T03:18:05.146Z,22.15
2022-11-19T03:20:49.703Z,21.90
2022-11-19T03:24:11.076Z,22.30
2022-11-19T03:27:20.567Z,23.67
2022-11-19T03:30:01.132Z,21.43
2022-11-19T03:33:04.919Z,23.42
2022-11-19T03:36:04.329Z,22.15
2022-11-19T03:38:49.840Z,23.00
2022-11-19T03:41:26.863Z,22.83
2022-11-19T03:44:15.386Z,22.38
2022-11-19T03:46:57.742Z,21.90
2022-11-19T03:49:39.046Z,20.70
2022-11-19T03:52:18.948Z,21.05
2022-11-19T03:54:49.922Z,19.15
2022-11-19T03:57:26.293Z,20.83
2022-11-19T03:59:56.367Z,20.30
2022-11-19T04:02:26.383Z,20.83
2022-11-19T04:04:56.413Z,21.27
2022-11-19T04:07:26.447Z,19.90
2022-11-19T04:09:56.530Z,18.83
2022-11-19T04:12:26.587Z,19.40
2022-11-19T04:14:55.000Z,18.65
2022-11-19T04:17:24.582Z,18.92
2022-11-19T04:19:54.264Z,19.80
2022-11-19T04:22:23.965Z,20.02
2022-11-19T04:24:53.715Z,17.23
2022-11-19T04:27:23.554Z,18.15
2022-11-19T04:29:50.804Z,12.93
2022-11-19T04:32:20.414Z,18.52
2022-11-19T04:34:47.747Z,16.52
2022-11-19T04:37:17.603Z,17.83
2022-11-19T04:39:47.246Z,17.15
2022-11-19T04:42:17.139Z,18.20
2022-11-19T04:44:46.639Z,18.70
2022-11-19T04:47:15.097Z,18.20
2022-11-19T04:49:43.741Z,19.10
2022-11-19T04:52:11.923Z,16.77
2022-11-19T04:54:40.731Z,16.80
2022-11-19T04:57:08.720Z,17.88
2022-11-19T04:59:37.174Z,16.23
2022-11-19T05:02:05.735Z,16.08
2022-11-19T05:04:33.975Z,15.85
2022-11-19T05:07:02.581Z,15.93
2022-11-19T05:09:30.914Z,16.33
2022-11-19T05:11:59.302Z,16.27
2022-11-19T05:14:30.510Z,14.70
2022-11-19T05:16:59.080Z,16.23
2022-11-19T05:19:27.463Z,15.38
2022-11-19T05:21:58.507Z,14.18
2022-11-19T05:33:09.025Z,13.50
2022-11-19T05:45:09.324Z,13.90
2022-11-19T05:47:44.701Z,15.52
2022-11-19T05:50:20.196Z,15.88
2022-11-19T05:53:21.882Z,14.13
2022-11-19T06:03:35.526Z,15.85
2022-11-19T06:11:04.916Z,14.15
2022-11-19T06:11:09.214Z,15.13
2022-11-19T06:22:05.529Z,15.77
2022-11-19T06:24:38.562Z,14.57
2022-11-19T06:27:12.543Z,15.98
2022-11-19T06:30:07.473Z,14.25
2022-11-19T07:51:18.094Z,13.63
2022-11-19T07:53:46.536Z,13.57
2022-11-19T07:56:15.210Z,14.32
2022-11-19T07:58:43.982Z,14.00
2022-11-19T08:01:19.149Z,14.25
2022-11-19T08:03:56.635Z,12.55
2022-11-19T08:06:30.003Z,14.18
2022-11-19T08:09:03.090Z,13.98
2022-11-19T08:11:33.332Z,14.63
2022-11-19T08:14:03.142Z,13.00
2022-11-19T08:16:52.896Z,12.98
2022-11-19T08:19:23.204Z,12.45
2022-11-19T08:21:53.416Z,13.38
2022-11-19T08:24:23.753Z,15.02
2022-11-19T08:26:54.012Z,14.02
2022-11-19T08:29:24.105Z,14.27
2022-11-19T08:31:54.258Z,14.23
2022-11-19T08:34:24.504Z,13.65
2022-11-19T08:36:54.332Z,13.07
2022-11-19T08:39:24.437Z,13.75
2022-11-19T08:42:14.377Z,13.07
2022-11-19T08:44:43.808Z,13.07
2022-11-19T08:47:12.646Z,12.10
2022-11-19T08:49:40.837Z,12.32
2022-11-19T08:52:09.108Z,13.63
2022-11-19T08:54:37.413Z,12.82
2022-11-19T08:57:06.093Z,12.65
2022-11-19T08:59:34.484Z,12.48
2022-11-19T09:02:02.879Z,11.13
2022-11-19T09:04:31.550Z,12.80
2022-11-19T09:06:59.646Z,11.93
2022-11-19T09:09:28.055Z,12.43
2022-11-19T09:11:56.922Z,11.68
2022-11-19T09:14:27.059Z,11.88
2022-11-19T09:16:56.705Z,12.07
2022-11-19T09:19:27.001Z,10.82
2022-11-19T09:21:56.835Z,9.82
2022-11-19T09:24:27.927Z,9.45
2022-11-19T09:27:02.091Z,9.35
2022-11-19T09:29:32.915Z,9.02
2022-11-19T09:32:02.897Z,8.93
2022-11-19T09:34:35.427Z,8.80
2022-11-19T09:37:05.542Z,8.45
2022-11-19T09:39:39.556Z,8.60
2022-11-19T09:43:16.550Z,9.90
2022-11-19T09:46:23.151Z,8.77
2022-11-19T09:49:03.319Z,8.98
2022-11-19T09:51:37.654Z,9.52
2022-11-19T09:54:19.264Z,9.48
2022-11-19T09:56:59.184Z,8.13
2022-11-19T09:59:43.367Z,8.40
2022-11-19T10:02:23.419Z,7.57
2022-11-19T10:04:54.231Z,9.18
2022-11-19T10:08:01.603Z,9.27
2022-11-19T10:11:32.898Z,7.95
2022-11-19T10:14:14.744Z,9.23
2022-11-19T10:17:12.032Z,8.57
2022-11-19T10:20:39.866Z,7.65
2022-11-19T10:23:47.285Z,8.00
2022-11-19T10:26:33.148Z,7.13
2022-11-19T10:29:19.692Z,9.50
2022-11-19T10:31:53.340Z,7.85
2022-11-19T10:34:38.136Z,8.38
2022-11-19T10:37:19.232Z,8.85
2022-11-19T10:40:22.118Z,8.55
2022-11-19T10:43:24.702Z,8.15
2022-11-19T10:46:02.860Z,7.25
2022-11-19T10:48:50.765Z,6.32
2022-11-19T10:51:41.737Z,7.10
2022-11-19T10:54:30.340Z,6.47
2022-11-19T10:57:03.589Z,6.97
2022-11-19T10:59:34.036Z,6.40
2022-11-19T11:02:31.578Z,6.28
2022-11-19T11:05:15.831Z,6.38
2022-11-19T11:07:53.891Z,6.95
2022-11-19T11:10:46.563Z,6.55
2022-11-19T11:13:59.566Z,6.88
2022-11-19T11:16:48.151Z,6.70
2022-11-19T11:19:23.149Z,7.57
2022-11-19T11:21:57.830Z,6.05
2022-11-19T11:24:39.375Z,5.68
2022-11-19T11:27:34.631Z,5.75
2022-11-19T11:30:19.946Z,5.05
2022-11-19T11:32:50.008Z,5.32
2022-11-19T11:35:36.486Z,5.05
2022-11-19T11:38:07.063Z,5.20
2022-11-19T11:40:37.945Z,4.85
2022-11-19T11:43:18.968Z,4.35
2022-11-19T11:46:04.846Z,4.70
2022-11-19T11:48:49.218Z,5.00
2022-11-19T11:51:41.467Z,5.32
2022-11-19T11:54:22.599Z,5.03
2022-11-19T11:56:52.779Z,5.03
2022-11-19T11:59:33.397Z,14.35
2022-11-19T12:02:19.988Z,5.88
2022-11-19T12:04:51.874Z,6.65
2022-11-19T12:07:54.945Z,5.60
2022-11-19T12:10:51.998Z,5.82
2022-11-19T12:13:52.024Z,5.00
2022-11-19T12:16:40.621Z,4.70
2022-11-19T12:19:35.391Z,4.40
2022-11-19T12:22:17.404Z,4.18
2022-11-19T12:25:08.481Z,4.35
2022-11-19T12:27:49.388Z,4.88
2022-11-19T12:30:29.211Z,4.70
2022-11-19T12:33:38.796Z,5.53
2022-11-19T12:36:25.479Z,4.88
2022-11-19T12:39:30.689Z,4.88
2022-11-19T12:42:33.506Z,4.60
2022-11-19T12:46:20.075Z,4.88
2022-11-19T12:49:22.902Z,4.60
2022-11-19T12:52:26.581Z,4.45
2022-11-19T12:55:31.362Z,4.78
2022-11-19T12:59:10.846Z,5.03
2022-11-19T13:01:51.444Z,4.15
2022-11-19T13:04:57.008Z,5.35
2022-11-19T13:07:57.203Z,5.47
2022-11-19T13:10:42.370Z,4.65
2022-11-19T13:13:26.407Z,5.22
2022-11-19T13:16:15.197Z,4.95
2022-11-19T13:18:54.011Z,4.70
2022-11-19T13:24:46.171Z,4.97
2022-11-19T13:27:23.489Z,5.55
2022-11-19T13:33:12.107Z,5.53
2022-11-19T13:36:25.270Z,5.22
2022-11-19T13:39:14.616Z,5.55
2022-11-19T13:42:13.503Z,5.78
2022-11-19T13:44:44.294Z,5.75
2022-11-19T13:48:00.169Z,6.75
2022-11-19T13:50:46.197Z,5.32
2022-11-19T13:53:44.670Z,5.85
2022-11-19T13:56:17.701Z,5.10
2022-11-19T13:58:56.711Z,5.38
2022-11-19T14:02:18.034Z,5.85
2022-11-19T14:05:29.517Z,5.88
2022-11-19T14:08:35.989Z,5.82
2022-11-19T14:11:40.835Z,5.75
2022-11-19T14:15:10.568Z,5.50
2022-11-19T14:18:19.430Z,5.47
2022-11-19T14:21:05.734Z,4.90
2022-11-19T14:24:08.959Z,6.20
2022-11-19T14:26:41.787Z,5.97
2022-11-19T14:29:26.716Z,5.72
2022-11-19T14:32:06.359Z,5.18
2022-11-19T14:34:46.924Z,5.88
2022-11-19T14:37:34.315Z,5.60
2022-11-19T14:40:19.866Z,5.50
2022-11-19T14:43:20.838Z,5.75
2022-11-19T14:46:03.409Z,6.18
2022-11-19T14:49:01.272Z,5.90
2022-11-19T14:51:39.089Z,5.07
2022-11-19T14:54:15.614Z,6.47
2022-11-19T14:57:01.576Z,5.73
2022-11-19T14:59:39.646Z,5.65
2022-11-19T15:02:29.700Z,5.80
2022-11-19T15:05:06.785Z,5.22
2022-11-19T15:07:48.930Z,5.97
2022-11-19T15:10:31.282Z,6.03
2022-11-19T15:13:36.703Z,6.03
2022-11-19T15:16:26.238Z,5.32
2022-11-19T15:20:15.270Z,5.60
2022-11-19T15:23:27.295Z,5.85
2022-11-19T15:26:07.600Z,5.55
2022-11-19T15:29:15.139Z,5.60
2022-11-19T15:32:36.108Z,5.13
2022-11-19T15:35:36.208Z,5.15
2022-11-19T15:38:33.557Z,5.05
2022-11-19T15:41:13.467Z,5.70
2022-11-19T15:43:55.913Z,5.00
2022-11-19T15:46:53.327Z,5.07
2022-11-19T15:49:29.290Z,5.45
2022-11-19T15:52:30.858Z,5.60
2022-11-19T15:55:27.006Z,5.22
2022-11-19T15:58:16.176Z,5.00
2022-11-19T16:00:51.786Z,5.38
2022-11-19T16:03:23.398Z,5.75
2022-11-19T16:06:27.601Z,5.30
2022-11-19T16:09:04.990Z,5.43
2022-11-19T16:11:56.941Z,6.38
2022-11-19T16:14:50.012Z,5.82
2022-11-19T16:17:43.521Z,5.95
2022-11-19T16:20:24.510Z,6.38
2022-11-19T16:23:07.018Z,6.55
2022-11-19T16:25:43.279Z,6.80
2022-11-19T16:28:30.431Z,6.50
2022-11-19T16:31:05.261Z,5.82
2022-11-19T16:33:39.735Z,7.28
2022-11-19T16:36:18.154Z,6.32
2022-11-19T16:38:52.876Z,7.30
2022-11-19T16:41:55.202Z,7.03
2022-11-19T16:44:29.892Z,8.20
2022-11-19T16:47:21.626Z,7.30
2022-11-19T16:49:50.573Z,8.07
2022-11-19T16:52:34.497Z,8.07
2022-11-19T16:55:24.046Z,8.38
2022-11-19T16:58:01.801Z,8.48
2022-11-19T17:00:37.179Z,8.25
2022-11-19T17:03:23.533Z,8.02
2022-11-19T17:05:57.720Z,8.07
2022-11-19T17:08:38.025Z,9.40
2022-11-19T17:11:57.146Z,8.23
2022-11-19T17:14:35.164Z,8.48
2022-11-19T17:17:04.194Z,8.55
2022-11-19T17:19:36.184Z,8.27
2022-11-19T17:22:33.962Z,9.38
2022-11-19T17:25:05.884Z,8.48
2022-11-19T17:27:38.766Z,9.80
2022-11-19T17:30:24.181Z,8.38
2022-11-19T17:33:03.884Z,9.23
2022-11-19T17:35:39.551Z,9.77
2022-11-19T17:38:17.326Z,9.82
2022-11-19T17:40:59.684Z,9.70
2022-11-19T17:43:59.050Z,9.75
2022-11-19T17:46:30.400Z,9.75
2022-11-19T17:48:57.775Z,8.50
2022-11-19T17:51:26.853Z,8.88
2022-11-19T17:53:56.642Z,9.27
2022-11-19T17:56:30.175Z,9.73
2022-11-19T17:59:01.153Z,9.18
2022-11-19T18:01:31.261Z,10.15
2022-11-19T18:03:59.703Z,9.80
2022-11-19T18:06:28.134Z,8.90
2022-11-19T18:08:56.543Z,9.50
2022-11-19T18:11:26.794Z,9.40
2022-11-19T18:14:02.055Z,10.55
2022-11-19T18:16:38.018Z,8.45
2022-11-19T18:19:25.084Z,8.52
2022-11-19T18:21:56.614Z,10.25
2022-11-19T18:24:26.783Z,9.13
2022-11-19T18:26:56.807Z,9.10
2022-11-19T18:29:25.414Z,10.20
2022-11-19T18:31:53.959Z,9.48
2022-11-19T18:34:25.409Z,10.38
2022-11-19T18:36:54.269Z,9.68
2022-11-19T18:39:23.916Z,9.30
2022-11-19T18:41:54.589Z,9.95
2022-11-19T18:44:34.885Z,10.48
2022-11-19T18:47:11.250Z,9.63
2022-11-19T18:49:42.168Z,9.00
2022-11-19T18:52:16.664Z,9.50
2022-11-19T18:54:46.801Z,10.05
2022-11-19T18:57:17.012Z,9.18
2022-11-19T18:59:47.439Z,9.38
2022-11-19T19:02:17.424Z,10.30
2022-11-19T19:04:51.086Z,10.13
2022-11-19T19:07:21.433Z,9.25
2022-11-19T19:09:51.525Z,9.43
2022-11-19T19:12:22.358Z,10.18
2022-11-19T19:14:52.624Z,11.70
2022-11-19T19:17:22.721Z,10.80
2022-11-19T19:19:52.838Z,10.27
2022-11-19T19:22:22.864Z,9.18
2022-11-19T19:24:55.270Z,9.57
2022-11-19T19:27:28.147Z,10.55
2022-11-19T19:29:58.468Z,9.48
2022-11-19T19:32:28.838Z,9.38
2022-11-19T19:34:58.898Z,9.68
2022-11-19T19:37:28.907Z,10.55
2022-11-19T19:39:59.052Z,9.60
2022-11-19T19:42:29.235Z,10.35
2022-11-19T19:44:59.248Z,10.73
2022-11-19T19:47:30.525Z,10.10
2022-11-19T19:50:00.338Z,10.60
2022-11-19T19:52:30.517Z,10.32
2022-11-19T19:55:00.507Z,11.00
2022-11-19T19:57:30.809Z,10.20
2022-11-19T20:00:03.685Z,11.82
2022-11-19T20:02:31.121Z,9.88
2022-11-19T20:05:01.101Z,10.38
2022-11-19T20:07:29.700Z,10.90
2022-11-19T20:09:58.942Z,11.75
2022-11-19T20:12:46.463Z,11.90
2022-11-19T20:15:19.359Z,11.50
2022-11-19T20:17:46.954Z,12.00
2022-11-19T20:20:17.096Z,10.82
2022-11-19T20:22:47.151Z,10.95
2022-11-19T20:25:17.770Z,10.55
2022-11-19T20:27:47.481Z,10.52
2022-11-19T20:30:18.037Z,10.90
2022-11-19T20:32:48.767Z,11.00
2022-11-19T20:35:19.936Z,11.43
2022-11-19T20:37:49.588Z,10.68
2022-11-19T20:40:21.066Z,12.52
2022-11-19T20:43:09.113Z,10.98
2022-11-19T20:45:38.537Z,10.85
2022-11-19T20:48:06.929Z,10.95
2022-11-19T20:50:35.354Z,10.82
2022-11-19T20:53:03.754Z,10.90
2022-11-19T20:55:32.158Z,11.02
2022-11-19T20:58:02.705Z,10.85
2022-11-19T21:00:34.240Z,11.07
2022-11-19T21:03:02.185Z,9.55
2022-11-19T21:05:34.384Z,11.50
2022-11-19T21:08:02.581Z,11.02
2022-11-19T21:10:32.580Z,10.52
2022-11-19T21:13:04.310Z,10.95
2022-11-19T21:15:37.490Z,10.85
2022-11-19T21:18:07.542Z,10.93
2022-11-19T21:20:39.430Z,11.73
2022-11-19T21:23:08.662Z,11.90
2022-11-19T21:25:40.760Z,11.10
2022-11-19T21:28:09.912Z,11.65
2022-11-19T21:30:39.174Z,10.82
2022-11-19T21:33:09.805Z,9.82
2022-11-19T21:35:41.953Z,11.38
2022-11-19T21:38:12.445Z,11.00
2022-11-19T21:40:42.921Z,11.38
2022-11-19T21:43:12.763Z,12.23
2022-11-19T21:45:43.126Z,11.05
2022-11-19T21:48:13.458Z,11.57
2022-11-19T21:50:43.716Z,11.07
2022-11-19T21:53:15.278Z,10.45
2022-11-19T21:55:47.342Z,10.48
2022-11-19T21:58:18.050Z,10.80
2022-11-19T22:00:48.540Z,10.63
2022-11-19T22:03:18.876Z,12.50
2022-11-19T22:06:07.004Z,12.02
2022-11-19T22:08:41.724Z,12.93
2022-11-19T22:11:28.789Z,11.93
2022-11-19T22:14:08.255Z,12.23
2022-11-19T22:16:40.610Z,13.38
2022-11-19T22:19:14.618Z,13.77
2022-11-19T22:21:44.693Z,12.98
2022-11-19T22:24:14.927Z,12.93
2022-11-19T22:26:45.040Z,13.65
2022-11-19T22:29:15.287Z,12.50
2022-11-19T22:31:45.368Z,13.23
2022-11-19T22:34:15.512Z,12.02
2022-11-19T22:36:45.593Z,13.82
2022-11-19T22:39:15.748Z,14.00
2022-11-19T22:41:45.938Z,13.73
2022-11-19T22:44:14.678Z,13.15
2022-11-19T22:46:42.963Z,13.57
2022-11-19T22:49:11.608Z,12.48
2022-11-19T22:51:39.794Z,12.00
2022-11-19T22:54:15.331Z,13.77
2022-11-19T22:56:42.964Z,12.60
2022-11-19T22:59:11.571Z,12.32
2022-11-19T23:01:40.409Z,13.57
2022-11-19T23:04:08.910Z,12.63
2022-11-19T23:06:38.471Z,13.77
2022-11-19T23:09:08.865Z,13.20
2022-11-19T23:11:57.105Z,12.70
2022-11-19T23:14:27.195Z,13.77
2022-11-19T23:16:57.057Z,12.90
2022-11-19T23:19:26.935Z,13.68
2022-11-19T23:21:56.687Z,12.85
2022-11-19T23:24:26.625Z,14.55
2022-11-19T23:26:56.523Z,13.05
2022-11-19T23:29:26.583Z,12.18
2022-11-19T23:31:56.230Z,13.20
2022-11-19T23:34:26.001Z,13.35
2022-11-19T23:36:56.125Z,13.25
2022-11-19T23:39:25.962Z,13.48
2022-11-19T23:41:55.992Z,14.93
2022-11-19T23:44:25.936Z,14.20
2022-11-19T23:46:55.739Z,12.77
2022-11-19T23:49:25.571Z,14.00
2022-11-19T23:51:55.098Z,14.13
2022-11-19T23:54:25.119Z,14.85
2022-11-19T23:56:54.799Z,14.10
2022-11-19T23:59:25.882Z,12.93
